sensor_id;sensor_type;location;lat;lon;timestamp;P1;durP1;ratioP1;P2;durP2;ratioP2
32096;SDS011;18610;49.916;8.284;2023-03-15T00:00:04;24.38;;;3.05;;
32096;SDS011;18610;49.916;8.284;2023-03-15T00:02:34;10.75;;;2.45;;
32096;SDS011;18610;49.916;8.284;2023-03-15T00:05:04;20.33;;;3.90;;
32096;SDS011;18610;49.916;8.284;2023-03-15T00:07:31;10.85;;;2.30;;
32096;SDS011;18610;49.916;8.284;2023-03-15T00:09:58;19.10;;;3.55;;
32096;SDS011;18610;49.916;8.284;2023-03-15T00:12:24;13.70;;;2.65;;
32096;SDS011;18610;49.916;8.284;2023-03-15T00:14:52;12.65;;;2.38;;
32096;SDS011;18610;49.916;8.284;2023-03-15T00:17:19;8.57;;;2.67;;
32096;SDS011;18610;49.916;8.284;2023-03-15T00:19:51;19.40;;;3.00;;
32096;SDS011;18610;49.916;8.284;2023-03-15T00:22:17;7.07;;;1.77;;
32096;SDS011;18610;49.916;8.284;2023-03-15T00:24:47;13.48;;;2.47;;
32096;SDS011;18610;49.916;8.284;2023-03-15T00:27:14;20.10;;;2.90;;
32096;SDS011;18610;49.916;8.284;2023-03-15T00:29:40;9.63;;;1.92;;
32096;SDS011;18610;49.916;8.284;2023-03-15T00:32:08;14.48;;;2.53;;
32096;SDS011;18610;49.916;8.284;2023-03-15T00:34:35;17.58;;;2.40;;
32096;SDS011;18610;49.916;8.284;2023-03-15T00:37:02;12.40;;;2.60;;
32096;SDS011;18610;49.916;8.284;2023-03-15T00:39:29;13.57;;;2.22;;
32096;SDS011;18610;49.916;8.284;2023-03-15T00:41:55;15.38;;;2.38;;
32096;SDS011;18610;49.916;8.284;2023-03-15T00:44:22;20.60;;;2.92;;
32096;SDS011;18610;49.916;8.284;2023-03-15T00:46:49;8.90;;;2.20;;
32096;SDS011;18610;49.916;8.284;2023-03-15T00:49:17;18.05;;;2.47;;
32096;SDS011;18610;49.916;8.284;2023-03-15T00:51:44;13.80;;;2.83;;
32096;SDS011;18610;49.916;8.284;2023-03-15T00:54:10;10.75;;;2.50;;
32096;SDS011;18610;49.916;8.284;2023-03-15T00:56:37;11.95;;;1.92;;
32096;SDS011;18610;49.916;8.284;2023-03-15T00:59:05;7.45;;;1.58;;
32096;SDS011;18610;49.916;8.284;2023-03-15T01:01:32;16.02;;;3.03;;
32096;SDS011;18610;49.916;8.284;2023-03-15T01:03:59;22.77;;;2.97;;
32096;SDS011;18610;49.916;8.284;2023-03-15T01:06:27;9.23;;;2.67;;
32096;SDS011;18610;49.916;8.284;2023-03-15T01:08:54;11.90;;;2.83;;
32096;SDS011;18610;49.916;8.284;2023-03-15T01:11:22;8.93;;;2.05;;
32096;SDS011;18610;49.916;8.284;2023-03-15T01:13:51;7.97;;;2.28;;
32096;SDS011;18610;49.916;8.284;2023-03-15T01:16:19;10.07;;;2.05;;
32096;SDS011;18610;49.916;8.284;2023-03-15T01:18:46;13.38;;;2.78;;
32096;SDS011;18610;49.916;8.284;2023-03-15T01:21:13;7.07;;;2.03;;
32096;SDS011;18610;49.916;8.284;2023-03-15T01:23:42;19.67;;;3.60;;
32096;SDS011;18610;49.916;8.284;2023-03-15T01:26:10;11.65;;;2.40;;
32096;SDS011;18610;49.916;8.284;2023-03-15T01:28:37;9.77;;;2.33;;
32096;SDS011;18610;49.916;8.284;2023-03-15T01:31:04;12.35;;;2.92;;
32096;SDS011;18610;49.916;8.284;2023-03-15T01:33:31;11.15;;;3.17;;
32096;SDS011;18610;49.916;8.284;2023-03-15T01:35:58;11.38;;;2.30;;
32096;SDS011;18610;49.916;8.284;2023-03-15T01:38:27;15.20;;;2.60;;
32096;SDS011;18610;49.916;8.284;2023-03-15T01:40:56;17.83;;;2.75;;
32096;SDS011;18610;49.916;8.284;2023-03-15T01:43:23;8.15;;;2.70;;
32096;SDS011;18610;49.916;8.284;2023-03-15T01:48:50;15.27;;;3.33;;
32096;SDS011;18610;49.916;8.284;2023-03-15T01:51:22;16.67;;;4.55;;
32096;SDS011;18610;49.916;8.284;2023-03-15T01:53:53;19.63;;;3.25;;
32096;SDS011;18610;49.916;8.284;2023-03-15T01:56:24;10.43;;;2.90;;
32096;SDS011;18610;49.916;8.284;2023-03-15T01:58:53;7.15;;;2.20;;
32096;SDS011;18610;49.916;8.284;2023-03-15T02:01:22;16.23;;;2.80;;
32096;SDS011;18610;49.916;8.284;2023-03-15T02:03:50;26.40;;;4.20;;
32096;SDS011;18610;49.916;8.284;2023-03-15T02:06:22;15.05;;;2.60;;
32096;SDS011;18610;49.916;8.284;2023-03-15T02:08:49;14.00;;;2.95;;
32096;SDS011;18610;49.916;8.284;2023-03-15T02:11:19;13.55;;;3.05;;
32096;SDS011;18610;49.916;8.284;2023-03-15T02:13:50;11.27;;;3.05;;
32096;SDS011;18610;49.916;8.284;2023-03-15T02:16:19;16.73;;;3.22;;
32096;SDS011;18610;49.916;8.284;2023-03-15T02:18:47;14.20;;;2.85;;
32096;SDS011;18610;49.916;8.284;2023-03-15T02:21:19;7.97;;;2.47;;
32096;SDS011;18610;49.916;8.284;2023-03-15T02:24:06;20.63;;;2.53;;
32096;SDS011;18610;49.916;8.284;2023-03-15T02:26:43;11.65;;;2.70;;
32096;SDS011;18610;49.916;8.284;2023-03-15T02:29:15;15.40;;;3.28;;
32096;SDS011;18610;49.916;8.284;2023-03-15T02:31:41;13.93;;;2.60;;
32096;SDS011;18610;49.916;8.284;2023-03-15T02:34:08;22.48;;;3.10;;
32096;SDS011;18610;49.916;8.284;2023-03-15T02:36:35;15.50;;;2.88;;
32096;SDS011;18610;49.916;8.284;2023-03-15T02:39:11;17.83;;;3.17;;
32096;SDS011;18610;49.916;8.284;2023-03-15T02:41:40;23.98;;;3.53;;
32096;SDS011;18610;49.916;8.284;2023-03-15T02:44:09;22.48;;;2.70;;
32096;SDS011;18610;49.916;8.284;2023-03-15T02:46:40;17.50;;;2.90;;
32096;SDS011;18610;49.916;8.284;2023-03-15T02:49:07;18.08;;;3.95;;
32096;SDS011;18610;49.916;8.284;2023-03-15T02:51:35;24.75;;;5.18;;
32096;SDS011;18610;49.916;8.284;2023-03-15T02:54:02;11.63;;;2.38;;
32096;SDS011;18610;49.916;8.284;2023-03-15T02:56:29;17.73;;;2.70;;
32096;SDS011;18610;49.916;8.284;2023-03-15T02:58:57;13.05;;;2.45;;
32096;SDS011;18610;49.916;8.284;2023-03-15T03:01:24;14.07;;;2.45;;
32096;SDS011;18610;49.916;8.284;2023-03-15T03:03:52;19.02;;;2.88;;
32096;SDS011;18610;49.916;8.284;2023-03-15T03:06:19;21.20;;;2.35;;
32096;SDS011;18610;49.916;8.284;2023-03-15T03:08:45;21.80;;;2.60;;
32096;SDS011;18610;49.916;8.284;2023-03-15T03:11:12;12.55;;;2.30;;
32096;SDS011;18610;49.916;8.284;2023-03-15T03:13:41;19.75;;;2.60;;
32096;SDS011;18610;49.916;8.284;2023-03-15T03:16:10;15.20;;;2.72;;
32096;SDS011;18610;49.916;8.284;2023-03-15T03:18:36;13.65;;;3.00;;
32096;SDS011;18610;49.916;8.284;2023-03-15T03:21:07;13.95;;;2.15;;
32096;SDS011;18610;49.916;8.284;2023-03-15T03:23:34;16.15;;;2.75;;
32096;SDS011;18610;49.916;8.284;2023-03-15T03:26:02;13.13;;;2.50;;
32096;SDS011;18610;49.916;8.284;2023-03-15T03:28:29;13.02;;;2.28;;
32096;SDS011;18610;49.916;8.284;2023-03-15T03:30:57;15.80;;;2.17;;
32096;SDS011;18610;49.916;8.284;2023-03-15T03:33:24;17.95;;;2.72;;
32096;SDS011;18610;49.916;8.284;2023-03-15T03:35:51;14.18;;;2.50;;
32096;SDS011;18610;49.916;8.284;2023-03-15T03:38:20;15.98;;;3.05;;
32096;SDS011;18610;49.916;8.284;2023-03-15T03:40:47;16.85;;;2.85;;
32096;SDS011;18610;49.916;8.284;2023-03-15T03:43:13;8.68;;;2.40;;
32096;SDS011;18610;49.916;8.284;2023-03-15T03:45:40;17.73;;;3.42;;
32096;SDS011;18610;49.916;8.284;2023-03-15T03:48:06;16.67;;;2.95;;
32096;SDS011;18610;49.916;8.284;2023-03-15T03:50:33;10.35;;;2.40;;
32096;SDS011;18610;49.916;8.284;2023-03-15T03:53:00;15.48;;;2.95;;
32096;SDS011;18610;49.916;8.284;2023-03-15T03:55:28;11.68;;;2.72;;
32096;SDS011;18610;49.916;8.284;2023-03-15T03:57:58;21.17;;;2.22;;
32096;SDS011;18610;49.916;8.284;2023-03-15T04:00:25;13.10;;;2.95;;
32096;SDS011;18610;49.916;8.284;2023-03-15T04:02:52;11.80;;;2.70;;
32096;SDS011;18610;49.916;8.284;2023-03-15T04:05:19;20.40;;;3.15;;
32096;SDS011;18610;49.916;8.284;2023-03-15T04:07:45;20.48;;;2.78;;
32096;SDS011;18610;49.916;8.284;2023-03-15T04:10:12;16.83;;;2.80;;
32096;SDS011;18610;49.916;8.284;2023-03-15T04:12:41;15.27;;;2.55;;
32096;SDS011;18610;49.916;8.284;2023-03-15T04:15:08;16.10;;;2.50;;
32096;SDS011;18610;49.916;8.284;2023-03-15T04:17:38;11.25;;;3.65;;
32096;SDS011;18610;49.916;8.284;2023-03-15T04:20:05;12.98;;;3.47;;
32096;SDS011;18610;49.916;8.284;2023-03-15T04:22:35;20.05;;;2.80;;
32096;SDS011;18610;49.916;8.284;2023-03-15T04:25:02;18.67;;;2.88;;
32096;SDS011;18610;49.916;8.284;2023-03-15T04:27:29;20.92;;;3.30;;
32096;SDS011;18610;49.916;8.284;2023-03-15T04:29:58;16.80;;;3.47;;
32096;SDS011;18610;49.916;8.284;2023-03-15T04:34:55;10.35;;;2.33;;
32096;SDS011;18610;49.916;8.284;2023-03-15T04:37:22;17.58;;;3.50;;
32096;SDS011;18610;49.916;8.284;2023-03-15T04:39:49;21.17;;;2.90;;
32096;SDS011;18610;49.916;8.284;2023-03-15T04:42:16;15.88;;;2.97;;
32096;SDS011;18610;49.916;8.284;2023-03-15T04:44:43;17.05;;;3.53;;
32096;SDS011;18610;49.916;8.284;2023-03-15T04:47:12;15.98;;;2.60;;
32096;SDS011;18610;49.916;8.284;2023-03-15T04:49:38;12.13;;;2.25;;
32096;SDS011;18610;49.916;8.284;2023-03-15T04:52:05;15.80;;;3.20;;
32096;SDS011;18610;49.916;8.284;2023-03-15T04:54:32;14.00;;;3.22;;
32096;SDS011;18610;49.916;8.284;2023-03-15T04:56:58;15.93;;;2.38;;
32096;SDS011;18610;49.916;8.284;2023-03-15T04:59:25;9.68;;;2.58;;
32096;SDS011;18610;49.916;8.284;2023-03-15T05:01:52;6.15;;;2.90;;
32096;SDS011;18610;49.916;8.284;2023-03-15T05:04:20;17.83;;;3.72;;
32096;SDS011;18610;49.916;8.284;2023-03-15T05:06:46;14.10;;;2.45;;
32096;SDS011;18610;49.916;8.284;2023-03-15T05:09:13;9.77;;;2.25;;
32096;SDS011;18610;49.916;8.284;2023-03-15T05:11:43;14.15;;;2.78;;
32096;SDS011;18610;49.916;8.284;2023-03-15T05:14:09;16.63;;;2.95;;
32096;SDS011;18610;49.916;8.284;2023-03-15T05:16:36;16.77;;;2.30;;
32096;SDS011;18610;49.916;8.284;2023-03-15T05:19:03;19.08;;;2.63;;
32096;SDS011;18610;49.916;8.284;2023-03-15T05:21:31;15.35;;;2.83;;
32096;SDS011;18610;49.916;8.284;2023-03-15T05:23:57;16.33;;;3.08;;
32096;SDS011;18610;49.916;8.284;2023-03-15T05:26:24;15.63;;;3.05;;
32096;SDS011;18610;49.916;8.284;2023-03-15T05:28:51;13.57;;;3.20;;
32096;SDS011;18610;49.916;8.284;2023-03-15T05:31:17;17.42;;;2.70;;
32096;SDS011;18610;49.916;8.284;2023-03-15T05:33:44;8.68;;;2.35;;
32096;SDS011;18610;49.916;8.284;2023-03-15T05:36:11;11.68;;;3.10;;
32096;SDS011;18610;49.916;8.284;2023-03-15T05:38:40;12.98;;;3.17;;
32096;SDS011;18610;49.916;8.284;2023-03-15T05:41:07;15.35;;;3.50;;
32096;SDS011;18610;49.916;8.284;2023-03-15T05:43:34;11.90;;;3.67;;
32096;SDS011;18610;49.916;8.284;2023-03-15T05:46:00;14.60;;;3.95;;
32096;SDS011;18610;49.916;8.284;2023-03-15T05:48:27;20.27;;;3.60;;
32096;SDS011;18610;49.916;8.284;2023-03-15T05:50:56;14.15;;;3.30;;
32096;SDS011;18610;49.916;8.284;2023-03-15T05:53:22;14.05;;;3.13;;
32096;SDS011;18610;49.916;8.284;2023-03-15T05:55:51;18.52;;;2.83;;
32096;SDS011;18610;49.916;8.284;2023-03-15T05:58:17;15.52;;;3.67;;
32096;SDS011;18610;49.916;8.284;2023-03-15T06:00:44;21.65;;;3.90;;
32096;SDS011;18610;49.916;8.284;2023-03-15T06:03:10;17.48;;;3.95;;
32096;SDS011;18610;49.916;8.284;2023-03-15T06:05:37;16.52;;;3.85;;
32096;SDS011;18610;49.916;8.284;2023-03-15T06:08:04;18.20;;;3.65;;
32096;SDS011;18610;49.916;8.284;2023-03-15T06:10:31;20.58;;;3.10;;
32096;SDS011;18610;49.916;8.284;2023-03-15T06:12:59;20.48;;;4.13;;
32096;SDS011;18610;49.916;8.284;2023-03-15T06:15:29;15.32;;;3.88;;
32096;SDS011;18610;49.916;8.284;2023-03-15T06:17:55;20.05;;;3.97;;
32096;SDS011;18610;49.916;8.284;2023-03-15T06:20:22;19.42;;;4.40;;
32096;SDS011;18610;49.916;8.284;2023-03-15T06:22:49;24.90;;;5.00;;
32096;SDS011;18610;49.916;8.284;2023-03-15T06:25:15;25.90;;;6.47;;
32096;SDS011;18610;49.916;8.284;2023-03-15T06:27:42;25.95;;;4.75;;
32096;SDS011;18610;49.916;8.284;2023-03-15T06:30:11;15.40;;;3.65;;
32096;SDS011;18610;49.916;8.284;2023-03-15T06:32:38;14.23;;;4.70;;
32096;SDS011;18610;49.916;8.284;2023-03-15T06:35:05;16.48;;;4.10;;
32096;SDS011;18610;49.916;8.284;2023-03-15T06:37:33;19.02;;;5.00;;
32096;SDS011;18610;49.916;8.284;2023-03-15T06:40:02;21.33;;;4.50;;
32096;SDS011;18610;49.916;8.284;2023-03-15T06:42:31;17.55;;;4.57;;
32096;SDS011;18610;49.916;8.284;2023-03-15T06:44:57;18.15;;;5.03;;
32096;SDS011;18610;49.916;8.284;2023-03-15T06:47:26;11.60;;;3.80;;
32096;SDS011;18610;49.916;8.284;2023-03-15T06:49:53;25.33;;;5.65;;
32096;SDS011;18610;49.916;8.284;2023-03-15T06:52:19;21.13;;;5.40;;
32096;SDS011;18610;49.916;8.284;2023-03-15T06:54:46;18.98;;;4.82;;
32096;SDS011;18610;49.916;8.284;2023-03-15T06:57:13;29.88;;;8.32;;
32096;SDS011;18610;49.916;8.284;2023-03-15T06:59:40;27.15;;;6.07;;
32096;SDS011;18610;49.916;8.284;2023-03-15T07:02:08;29.30;;;7.40;;
32096;SDS011;18610;49.916;8.284;2023-03-15T07:04:40;16.23;;;5.78;;
32096;SDS011;18610;49.916;8.284;2023-03-15T07:07:08;18.20;;;5.90;;
32096;SDS011;18610;49.916;8.284;2023-03-15T07:09:35;18.63;;;5.93;;
32096;SDS011;18610;49.916;8.284;2023-03-15T07:12:02;23.00;;;6.43;;
32096;SDS011;18610;49.916;8.284;2023-03-15T07:14:29;21.73;;;5.93;;
32096;SDS011;18610;49.916;8.284;2023-03-15T07:16:56;16.35;;;6.07;;
32096;SDS011;18610;49.916;8.284;2023-03-15T07:19:23;14.10;;;4.97;;
32096;SDS011;18610;49.916;8.284;2023-03-15T07:21:51;21.05;;;5.65;;
32096;SDS011;18610;49.916;8.284;2023-03-15T07:24:17;19.27;;;4.78;;
32096;SDS011;18610;49.916;8.284;2023-03-15T07:26:44;27.67;;;5.30;;
32096;SDS011;18610;49.916;8.284;2023-03-15T07:29:11;26.90;;;5.72;;
32096;SDS011;18610;49.916;8.284;2023-03-15T07:31:38;15.05;;;5.00;;
32096;SDS011;18610;49.916;8.284;2023-03-15T07:34:08;21.15;;;5.28;;
32096;SDS011;18610;49.916;8.284;2023-03-15T07:36:35;18.73;;;4.90;;
32096;SDS011;18610;49.916;8.284;2023-03-15T07:39:03;14.75;;;4.85;;
32096;SDS011;18610;49.916;8.284;2023-03-15T07:41:30;16.88;;;4.80;;
32096;SDS011;18610;49.916;8.284;2023-03-15T07:43:57;18.00;;;4.82;;
32096;SDS011;18610;49.916;8.284;2023-03-15T07:46:24;10.88;;;4.28;;
32096;SDS011;18610;49.916;8.284;2023-03-15T07:48:51;14.80;;;4.43;;
32096;SDS011;18610;49.916;8.284;2023-03-15T07:51:18;22.65;;;5.70;;
32096;SDS011;18610;49.916;8.284;2023-03-15T07:53:45;19.48;;;5.32;;
32096;SDS011;18610;49.916;8.284;2023-03-15T07:56:13;20.13;;;5.32;;
32096;SDS011;18610;49.916;8.284;2023-03-15T07:58:40;16.35;;;5.00;;
32096;SDS011;18610;49.916;8.284;2023-03-15T08:01:07;16.65;;;5.57;;
32096;SDS011;18610;49.916;8.284;2023-03-15T08:03:34;14.23;;;5.53;;
32096;SDS011;18610;49.916;8.284;2023-03-15T08:06:01;23.80;;;6.07;;
32096;SDS011;18610;49.916;8.284;2023-03-15T08:08:27;21.15;;;6.10;;
32096;SDS011;18610;49.916;8.284;2023-03-15T08:10:54;17.55;;;5.22;;
32096;SDS011;18610;49.916;8.284;2023-03-15T08:13:24;18.55;;;5.50;;
32096;SDS011;18610;49.916;8.284;2023-03-15T08:15:51;18.27;;;5.20;;
32096;SDS011;18610;49.916;8.284;2023-03-15T08:18:18;26.52;;;5.93;;
32096;SDS011;18610;49.916;8.284;2023-03-15T08:20:44;16.35;;;5.57;;
32096;SDS011;18610;49.916;8.284;2023-03-15T08:23:11;20.17;;;6.22;;
32096;SDS011;18610;49.916;8.284;2023-03-15T08:25:40;19.38;;;5.60;;
32096;SDS011;18610;49.916;8.284;2023-03-15T08:28:08;16.33;;;6.22;;
32096;SDS011;18610;49.916;8.284;2023-03-15T08:30:36;13.60;;;5.60;;
32096;SDS011;18610;49.916;8.284;2023-03-15T08:33:03;12.65;;;5.43;;
32096;SDS011;18610;49.916;8.284;2023-03-15T08:35:30;20.58;;;5.60;;
32096;SDS011;18610;49.916;8.284;2023-03-15T08:37:58;19.70;;;5.47;;
32096;SDS011;18610;49.916;8.284;2023-03-15T08:40:26;11.02;;;5.32;;
32096;SDS011;18610;49.916;8.284;2023-03-15T08:42:55;23.92;;;6.00;;
32096;SDS011;18610;49.916;8.284;2023-03-15T08:45:22;17.08;;;5.40;;
32096;SDS011;18610;49.916;8.284;2023-03-15T08:47:54;14.50;;;5.35;;
32096;SDS011;18610;49.916;8.284;2023-03-15T08:50:21;21.92;;;6.30;;
32096;SDS011;18610;49.916;8.284;2023-03-15T08:52:48;16.63;;;5.93;;
32096;SDS011;18610;49.916;8.284;2023-03-15T08:55:14;18.17;;;7.13;;
32096;SDS011;18610;49.916;8.284;2023-03-15T08:57:41;16.52;;;6.30;;
32096;SDS011;18610;49.916;8.284;2023-03-15T09:00:09;16.30;;;6.55;;
32096;SDS011;18610;49.916;8.284;2023-03-15T09:05:09;20.58;;;6.68;;
32096;SDS011;18610;49.916;8.284;2023-03-15T09:07:36;20.35;;;6.47;;
32096;SDS011;18610;49.916;8.284;2023-03-15T09:10:04;17.38;;;5.93;;
32096;SDS011;18610;49.916;8.284;2023-03-15T09:12:31;21.15;;;6.47;;
32096;SDS011;18610;49.916;8.284;2023-03-15T09:14:58;16.17;;;6.78;;
32096;SDS011;18610;49.916;8.284;2023-03-15T09:17:25;18.23;;;6.35;;
32096;SDS011;18610;49.916;8.284;2023-03-15T09:19:52;16.35;;;6.70;;
32096;SDS011;18610;49.916;8.284;2023-03-15T09:22:20;18.30;;;6.35;;
32096;SDS011;18610;49.916;8.284;2023-03-15T09:24:46;14.63;;;5.63;;
32096;SDS011;18610;49.916;8.284;2023-03-15T09:27:13;9.88;;;5.90;;
32096;SDS011;18610;49.916;8.284;2023-03-15T09:29:40;16.55;;;7.13;;
32096;SDS011;18610;49.916;8.284;2023-03-15T09:32:06;10.57;;;5.85;;
32096;SDS011;18610;49.916;8.284;2023-03-15T09:34:34;21.75;;;5.63;;
32096;SDS011;18610;49.916;8.284;2023-03-15T09:37:00;9.90;;;5.47;;
32096;SDS011;18610;49.916;8.284;2023-03-15T09:39:28;10.13;;;5.03;;
32096;SDS011;18610;49.916;8.284;2023-03-15T09:41:57;12.82;;;4.75;;
32096;SDS011;18610;49.916;8.284;2023-03-15T09:44:30;10.82;;;5.20;;
32096;SDS011;18610;49.916;8.284;2023-03-15T09:47:07;11.85;;;5.38;;
32096;SDS011;18610;49.916;8.284;2023-03-15T09:49:46;16.95;;;5.25;;
32096;SDS011;18610;49.916;8.284;2023-03-15T09:52:25;12.18;;;4.95;;
32096;SDS011;18610;49.916;8.284;2023-03-15T09:54:59;10.27;;;5.00;;
32096;SDS011;18610;49.916;8.284;2023-03-15T09:57:34;12.02;;;5.30;;
32096;SDS011;18610;49.916;8.284;2023-03-15T10:00:06;10.05;;;5.75;;
32096;SDS011;18610;49.916;8.284;2023-03-15T10:02:38;8.98;;;5.45;;
32096;SDS011;18610;49.916;8.284;2023-03-15T10:05:11;11.73;;;4.82;;
32096;SDS011;18610;49.916;8.284;2023-03-15T10:07:44;13.48;;;4.95;;
32096;SDS011;18610;49.916;8.284;2023-03-15T10:10:15;10.57;;;4.40;;
32096;SDS011;18610;49.916;8.284;2023-03-15T10:12:45;11.60;;;4.53;;
32096;SDS011;18610;49.916;8.284;2023-03-15T10:15:19;7.25;;;4.45;;
32096;SDS011;18610;49.916;8.284;2023-03-15T10:17:57;11.85;;;5.35;;
32096;SDS011;18610;49.916;8.284;2023-03-15T10:20:41;15.27;;;4.93;;
32096;SDS011;18610;49.916;8.284;2023-03-15T10:23:13;9.63;;;3.90;;
32096;SDS011;18610;49.916;8.284;2023-03-15T10:25:45;10.88;;;3.78;;
32096;SDS011;18610;49.916;8.284;2023-03-15T10:28:19;7.75;;;3.35;;
32096;SDS011;18610;49.916;8.284;2023-03-15T10:30:50;5.20;;;3.17;;
32096;SDS011;18610;49.916;8.284;2023-03-15T10:33:19;5.80;;;3.30;;
32096;SDS011;18610;49.916;8.284;2023-03-15T10:35:53;5.88;;;3.03;;
32096;SDS011;18610;49.916;8.284;2023-03-15T10:38:21;7.80;;;3.30;;
32096;SDS011;18610;49.916;8.284;2023-03-15T10:40:51;5.28;;;2.13;;
32096;SDS011;18610;49.916;8.284;2023-03-15T10:43:20;6.10;;;2.20;;
32096;SDS011;18610;49.916;8.284;2023-03-15T10:45:59;3.72;;;2.05;;
32096;SDS011;18610;49.916;8.284;2023-03-15T10:48:27;3.95;;;2.70;;
32096;SDS011;18610;49.916;8.284;2023-03-15T10:50:55;4.75;;;2.30;;
32096;SDS011;18610;49.916;8.284;2023-03-15T10:53:22;2.95;;;1.65;;
32096;SDS011;18610;49.916;8.284;2023-03-15T10:55:58;5.82;;;1.90;;
32096;SDS011;18610;49.916;8.284;2023-03-15T10:58:27;2.92;;;1.63;;
32096;SDS011;18610;49.916;8.284;2023-03-15T11:01:05;2.42;;;1.80;;
32096;SDS011;18610;49.916;8.284;2023-03-15T11:03:33;1.35;;;0.93;;
32096;SDS011;18610;49.916;8.284;2023-03-15T11:06:01;1.23;;;0.70;;
32096;SDS011;18610;49.916;8.284;2023-03-15T11:08:42;2.67;;;0.90;;
32096;SDS011;18610;49.916;8.284;2023-03-15T11:11:11;1.90;;;0.85;;
32096;SDS011;18610;49.916;8.284;2023-03-15T11:13:38;1.83;;;1.00;;
32096;SDS011;18610;49.916;8.284;2023-03-15T11:16:16;1.75;;;1.10;;
32096;SDS011;18610;49.916;8.284;2023-03-15T11:18:48;2.60;;;1.10;;
32096;SDS011;18610;49.916;8.284;2023-03-15T11:23:48;2.83;;;1.38;;
32096;SDS011;18610;49.916;8.284;2023-03-15T11:26:18;1.33;;;1.17;;
32096;SDS011;18610;49.916;8.284;2023-03-15T11:28:48;3.17;;;1.08;;
32096;SDS011;18610;49.916;8.284;2023-03-15T11:31:18;1.42;;;1.25;;
32096;SDS011;18610;49.916;8.284;2023-03-15T11:33:47;4.50;;;2.55;;
32096;SDS011;18610;49.916;8.284;2023-03-15T11:36:19;3.65;;;1.80;;
32096;SDS011;18610;49.916;8.284;2023-03-15T11:38:49;1.80;;;1.55;;
32096;SDS011;18610;49.916;8.284;2023-03-15T11:41:26;3.40;;;1.80;;
32096;SDS011;18610;49.916;8.284;2023-03-15T11:43:58;2.38;;;1.23;;
32096;SDS011;18610;49.916;8.284;2023-03-15T11:46:31;2.53;;;2.20;;
32096;SDS011;18610;49.916;8.284;2023-03-15T11:49:03;5.22;;;1.92;;
32096;SDS011;18610;49.916;8.284;2023-03-15T11:51:38;1.50;;;1.30;;
32096;SDS011;18610;49.916;8.284;2023-03-15T11:54:06;3.97;;;2.90;;
32096;SDS011;18610;49.916;8.284;2023-03-15T11:56:48;4.35;;;3.25;;
32096;SDS011;18610;49.916;8.284;2023-03-15T11:59:19;4.38;;;3.92;;
32096;SDS011;18610;49.916;8.284;2023-03-15T12:01:50;5.57;;;3.85;;
32096;SDS011;18610;49.916;8.284;2023-03-15T12:04:25;3.28;;;2.50;;
32096;SDS011;18610;49.916;8.284;2023-03-15T12:07:23;2.55;;;2.10;;
32096;SDS011;18610;49.916;8.284;2023-03-15T12:13:25;2.40;;;2.20;;
32096;SDS011;18610;49.916;8.284;2023-03-15T12:15:54;2.53;;;2.25;;
32096;SDS011;18610;49.916;8.284;2023-03-15T12:18:32;3.88;;;2.20;;
32096;SDS011;18610;49.916;8.284;2023-03-15T12:21:12;2.40;;;2.20;;
32096;SDS011;18610;49.916;8.284;2023-03-15T12:23:44;3.08;;;2.38;;
32096;SDS011;18610;49.916;8.284;2023-03-15T12:26:24;1.30;;;0.95;;
32096;SDS011;18610;49.916;8.284;2023-03-15T12:29:10;1.75;;;0.70;;
32096;SDS011;18610;49.916;8.284;2023-03-15T12:31:43;1.55;;;0.77;;
32096;SDS011;18610;49.916;8.284;2023-03-15T12:34:35;0.80;;;0.80;;
32096;SDS011;18610;49.916;8.284;2023-03-15T12:37:12;4.40;;;1.23;;
32096;SDS011;18610;49.916;8.284;2023-03-15T12:39:42;3.90;;;1.80;;
32096;SDS011;18610;49.916;8.284;2023-03-15T12:45:33;2.85;;;1.60;;
32096;SDS011;18610;49.916;8.284;2023-03-15T12:48:25;4.78;;;2.20;;
32096;SDS011;18610;49.916;8.284;2023-03-15T12:51:03;5.32;;;2.03;;
32096;SDS011;18610;49.916;8.284;2023-03-15T12:53:41;3.55;;;2.08;;
32096;SDS011;18610;49.916;8.284;2023-03-15T12:59:14;3.75;;;2.33;;
32096;SDS011;18610;49.916;8.284;2023-03-15T13:01:51;2.38;;;1.88;;
32096;SDS011;18610;49.916;8.284;2023-03-15T13:04:20;2.88;;;2.55;;
32096;SDS011;18610;49.916;8.284;2023-03-15T13:07:08;3.67;;;2.30;;
32096;SDS011;18610;49.916;8.284;2023-03-15T13:12:33;4.32;;;2.42;;
32096;SDS011;18610;49.916;8.284;2023-03-15T13:15:08;2.20;;;2.00;;
32096;SDS011;18610;49.916;8.284;2023-03-15T13:17:45;2.78;;;1.90;;
32096;SDS011;18610;49.916;8.284;2023-03-15T13:20:17;2.50;;;1.70;;
32096;SDS011;18610;49.916;8.284;2023-03-15T13:22:56;3.13;;;1.73;;
32096;SDS011;18610;49.916;8.284;2023-03-15T13:25:31;2.30;;;1.85;;
32096;SDS011;18610;49.916;8.284;2023-03-15T13:28:04;2.42;;;1.83;;
32096;SDS011;18610;49.916;8.284;2023-03-15T13:30:39;7.07;;;2.05;;
32096;SDS011;18610;49.916;8.284;2023-03-15T13:33:17;1.98;;;1.75;;
32096;SDS011;18610;49.916;8.284;2023-03-15T13:35:47;2.55;;;1.98;;
32096;SDS011;18610;49.916;8.284;2023-03-15T13:38:26;6.03;;;3.03;;
32096;SDS011;18610;49.916;8.284;2023-03-15T13:40:55;3.80;;;2.22;;
32096;SDS011;18610;49.916;8.284;2023-03-15T13:43:24;4.65;;;2.63;;
32096;SDS011;18610;49.916;8.284;2023-03-15T13:45:55;3.65;;;2.20;;
32096;SDS011;18610;49.916;8.284;2023-03-15T13:48:26;3.28;;;1.70;;
32096;SDS011;18610;49.916;8.284;2023-03-15T13:50:54;1.92;;;1.33;;
32096;SDS011;18610;49.916;8.284;2023-03-15T13:53:24;3.45;;;2.28;;
32096;SDS011;18610;49.916;8.284;2023-03-15T13:55:52;3.50;;;2.50;;
32096;SDS011;18610;49.916;8.284;2023-03-15T13:58:20;2.72;;;2.13;;
32096;SDS011;18610;49.916;8.284;2023-03-15T14:00:48;2.05;;;1.70;;
32096;SDS011;18610;49.916;8.284;2023-03-15T14:03:22;2.78;;;2.35;;
32096;SDS011;18610;49.916;8.284;2023-03-15T14:05:51;2.15;;;1.20;;
32096;SDS011;18610;49.916;8.284;2023-03-15T14:08:20;3.75;;;1.00;;
32096;SDS011;18610;49.916;8.284;2023-03-15T14:10:56;5.05;;;1.60;;
32096;SDS011;18610;49.916;8.284;2023-03-15T14:13:29;2.13;;;1.52;;
32096;SDS011;18610;49.916;8.284;2023-03-15T14:15:58;1.85;;;1.20;;
32096;SDS011;18610;49.916;8.284;2023-03-15T14:18:31;5.05;;;1.55;;
32096;SDS011;18610;49.916;8.284;2023-03-15T14:21:02;3.63;;;1.40;;
32096;SDS011;18610;49.916;8.284;2023-03-15T14:23:34;1.40;;;1.27;;
32096;SDS011;18610;49.916;8.284;2023-03-15T14:26:10;2.28;;;1.30;;
32096;SDS011;18610;49.916;8.284;2023-03-15T14:28:45;2.80;;;1.83;;
32096;SDS011;18610;49.916;8.284;2023-03-15T14:31:18;3.25;;;1.45;;
32096;SDS011;18610;49.916;8.284;2023-03-15T14:33:51;2.88;;;1.88;;
32096;SDS011;18610;49.916;8.284;2023-03-15T14:36:22;2.17;;;1.80;;
32096;SDS011;18610;49.916;8.284;2023-03-15T14:38:51;2.47;;;1.70;;
32096;SDS011;18610;49.916;8.284;2023-03-15T14:41:23;1.77;;;1.50;;
32096;SDS011;18610;49.916;8.284;2023-03-15T14:43:56;4.75;;;1.25;;
32096;SDS011;18610;49.916;8.284;2023-03-15T14:46:24;3.33;;;1.08;;
32096;SDS011;18610;49.916;8.284;2023-03-15T14:48:51;2.85;;;1.25;;
32096;SDS011;18610;49.916;8.284;2023-03-15T14:51:20;2.92;;;1.20;;
32096;SDS011;18610;49.916;8.284;2023-03-15T14:53:50;2.40;;;1.30;;
32096;SDS011;18610;49.916;8.284;2023-03-15T14:56:17;3.95;;;1.40;;
32096;SDS011;18610;49.916;8.284;2023-03-15T14:58:44;2.42;;;1.50;;
32096;SDS011;18610;49.916;8.284;2023-03-15T15:01:11;2.33;;;1.00;;
32096;SDS011;18610;49.916;8.284;2023-03-15T15:03:42;2.67;;;1.05;;
32096;SDS011;18610;49.916;8.284;2023-03-15T15:06:12;2.17;;;1.20;;
32096;SDS011;18610;49.916;8.284;2023-03-15T15:08:41;3.25;;;1.10;;
32096;SDS011;18610;49.916;8.284;2023-03-15T15:11:10;2.42;;;1.08;;
32096;SDS011;18610;49.916;8.284;2023-03-15T15:13:38;3.22;;;1.10;;